Terminal Aerodrome Forecast
Issued by NWS Houston/Galveston, TX

Home | Current Version | Previous Version | Text Only | Print | Product List | Glossary On
Versions: 1 2 3 4 5 6 7 8 9 10 11 12 13 14 15 16 17 18 19
000
FTUS44 KHGX 171503 AAA
TAFCLL
TAF AMD
KCLL 171503Z 1715/1812 00000KT 1SM BR BKN007
      TEMPO 1715/1716 1/4SM FG VV002
     FM171600 13005KT 6SM BR SCT007 OVC015
     FM171900 14005KT P6SM SCT025 OVC250
     FM180600 18002KT P6SM BKN025
     FM180900 16002KT 6SM BR OVC015=

USA.gov is the U.S. government's official web portal to all federal, state and local government web resources and services.